Time;durP1;ratioP1;P1;durP2;ratioP2;P2;SDS_P1;SDS_P2;PMS_P1;PMS_P2;Temp;Humidity;BMP_temperature;BMP_pressure;BME280_temperature;BME280_humidity;BME280_pressure;Samples;Min_cycle;Max_cycle;Signal;HPM_P1;HPM_P2
2021/01/06 00:01:42;;;;;;;3.90;2.70;;;;;;;;;;5049758;28;20041;-72
2021/01/06 00:04:08;;;;;;;3.08;2.78;;;;;;;;;;5050731;28;20041;-73
2021/01/06 00:06:36;;;;;;;4.82;2.60;;;;;;;;;;5050028;28;20040;-73
2021/01/06 00:09:04;;;;;;;3.42;3.13;;;;;;;;;;5050750;28;20033;-73
2021/01/06 00:11:31;;;;;;;3.38;2.95;;;;;;;;;;5050818;28;20033;-73
2021/01/06 00:13:57;;;;;;;2.53;2.17;;;;;;;;;;5049790;28;20029;-73
2021/01/06 00:16:24;;;;;;;3.58;3.03;;;;;;;;;;5050318;28;20025;-73
2021/01/06 00:18:51;;;;;;;2.55;2.35;;;;;;;;;;5050280;28;20033;-73
2021/01/06 00:21:17;;;;;;;4.03;3.15;;;;;;;;;;5050634;28;20111;-73
2021/01/06 00:23:43;;;;;;;4.70;3.22;;;;;;;;;;5049429;28;20032;-73
2021/01/06 00:26:09;;;;;;;3.53;2.40;;;;;;;;;;5050293;28;20025;-73
2021/01/06 00:28:36;;;;;;;4.25;3.78;;;;;;;;;;5050229;28;20395;-73
2021/01/06 00:31:02;;;;;;;4.82;3.85;;;;;;;;;;5050451;28;20035;-73
2021/01/06 00:33:29;;;;;;;4.28;2.72;;;;;;;;;;5050274;28;20454;-73
2021/01/06 00:36:00;;;;;;;4.00;3.60;;;;;;;;;;5055094;28;20052;-73
2021/01/06 00:38:27;;;;;;;4.65;3.05;;;;;;;;;;5070446;28;20490;-73
2021/01/06 00:40:53;;;;;;;4.90;3.65;;;;;;;;;;5069720;28;20641;-73
2021/01/06 00:43:19;;;;;;;5.47;4.32;;;;;;;;;;5069936;28;20036;-73
2021/01/06 00:45:45;;;;;;;7.10;4.90;;;;;;;;;;5069237;28;20029;-74
2021/01/06 00:48:12;;;;;;;4.05;3.58;;;;;;;;;;5069892;28;20486;-73
2021/01/06 00:50:39;;;;;;;6.95;4.68;;;;;;;;;;5069798;28;20479;-73
2021/01/06 00:53:26;;;;;;;3.92;3.53;;;;;;;;;;5069949;28;20064;-73
2021/01/06 00:55:52;;;;;;;6.03;3.80;;;;;;;;;;5069070;28;20043;-73
2021/01/06 00:58:19;;;;;;;5.50;4.20;;;;;;;;;;5070164;28;20025;-73
2021/01/06 01:00:45;;;;;;;5.63;4.28;;;;;;;;;;5069332;28;20053;-73
2021/01/06 01:03:12;;;;;;;6.32;4.00;;;;;;;;;;5069989;28;20108;-73
2021/01/06 01:05:38;;;;;;;7.25;3.85;;;;;;;;;;5069176;28;20484;-73
2021/01/06 01:08:05;;;;;;;5.38;4.00;;;;;;;;;;5070792;28;20028;-73
2021/01/06 01:10:31;;;;;;;7.22;4.53;;;;;;;;;;5076577;28;20028;-73
2021/01/06 01:12:58;;;;;;;4.05;3.60;;;;;;;;;;5076136;28;20043;-73
2021/01/06 01:15:26;;;;;;;8.13;3.97;;;;;;;;;;5076220;28;20029;-73
2021/01/06 01:17:53;;;;;;;4.22;3.80;;;;;;;;;;5075809;28;20025;-73
2021/01/06 01:20:19;;;;;;;4.38;3.33;;;;;;;;;;5076508;28;20028;-73
2021/01/06 01:22:45;;;;;;;5.00;3.85;;;;;;;;;;5075573;28;20039;-73
2021/01/06 01:25:17;;;;;;;4.25;3.78;;;;;;;;;;5076553;28;20028;-73
2021/01/06 01:27:43;;;;;;;4.97;3.85;;;;;;;;;;5075913;28;20040;-73
2021/01/06 01:30:10;;;;;;;5.65;4.72;;;;;;;;;;5076602;28;20032;-73
2021/01/06 01:32:36;;;;;;;4.97;3.80;;;;;;;;;;5075706;28;20487;-73
2021/01/06 01:35:04;;;;;;;3.72;3.30;;;;;;;;;;5075542;28;20040;-73
2021/01/06 01:37:30;;;;;;;2.90;2.67;;;;;;;;;;5075222;28;20036;-74
2021/01/06 01:39:56;;;;;;;3.38;3.05;;;;;;;;;;5075841;28;20479;-73
2021/01/06 01:42:22;;;;;;;3.53;3.22;;;;;;;;;;5076329;28;20374;-73
2021/01/06 01:44:55;;;;;;;2.70;2.45;;;;;;;;;;5075420;28;20028;-73
2021/01/06 01:47:23;;;;;;;6.50;3.78;;;;;;;;;;5076171;28;20028;-73
2021/01/06 01:49:49;;;;;;;4.13;3.72;;;;;;;;;;5075781;28;20563;-73
2021/01/06 01:52:24;;;;;;;3.95;3.17;;;;;;;;;;5076213;28;20017;-73
2021/01/06 01:54:51;;;;;;;2.63;2.17;;;;;;;;;;5075809;28;20036;-74
2021/01/06 01:57:21;;;;;;;4.68;3.20;;;;;;;;;;5076446;28;20043;-73
2021/01/06 01:59:47;;;;;;;3.35;3.05;;;;;;;;;;5075610;28;20029;-73
2021/01/06 02:02:20;;;;;;;3.10;2.80;;;;;;;;;;5075822;28;20043;-73
2021/01/06 02:04:53;;;;;;;2.55;2.35;;;;;;;;;;5074866;28;20032;-74
2021/01/06 02:07:22;;;;;;;3.83;3.30;;;;;;;;;;5075924;28;20024;-73
2021/01/06 02:10:00;;;;;;;5.07;2.78;;;;;;;;;;5075396;28;20274;-73
2021/01/06 02:12:42;;;;;;;4.57;4.00;;;;;;;;;;5075946;28;20056;-73
2021/01/06 02:15:19;;;;;;;4.20;3.42;;;;;;;;;;5075651;28;20036;-73
2021/01/06 02:17:46;;;;;;;4.55;3.47;;;;;;;;;;5075321;28;20035;-73
2021/01/06 02:20:25;;;;;;;4.57;2.92;;;;;;;;;;5074699;28;20029;-73
2021/01/06 02:22:52;;;;;;;3.30;2.92;;;;;;;;;;5072381;28;20020;-73
2021/01/06 02:25:18;;;;;;;3.55;3.25;;;;;;;;;;5072559;28;20028;-73
2021/01/06 02:27:45;;;;;;;2.67;2.45;;;;;;;;;;5072000;28;20094;-73
2021/01/06 02:30:12;;;;;;;3.67;2.75;;;;;;;;;;5072830;28;20071;-73
2021/01/06 02:32:38;;;;;;;2.78;2.58;;;;;;;;;;5071843;28;20056;-73
2021/01/06 02:35:06;;;;;;;4.10;3.17;;;;;;;;;;5071891;28;20024;-74
2021/01/06 02:37:32;;;;;;;2.83;2.53;;;;;;;;;;5052338;28;20041;-74
2021/01/06 02:39:58;;;;;;;2.80;2.55;;;;;;;;;;5052171;28;20083;-73
2021/01/06 02:42:24;;;;;;;2.97;2.67;;;;;;;;;;5052261;28;20033;-73
2021/01/06 02:44:50;;;;;;;3.13;2.58;;;;;;;;;;5051858;28;20087;-73
2021/01/06 02:47:17;;;;;;;2.45;2.25;;;;;;;;;;5051905;28;20035;-73
2021/01/06 02:49:44;;;;;;;3.83;2.53;;;;;;;;;;5051645;28;20025;-73
2021/01/06 02:52:19;;;;;;;2.70;1.98;;;;;;;;;;5052399;28;20036;-74
2021/01/06 02:54:46;;;;;;;2.85;2.28;;;;;;;;;;5051470;28;20025;-73
2021/01/06 02:57:13;;;;;;;2.80;2.08;;;;;;;;;;5051860;28;20417;-73
2021/01/06 02:59:43;;;;;;;2.40;2.13;;;;;;;;;;5051838;28;20056;-73
2021/01/06 03:02:11;;;;;;;2.25;2.10;;;;;;;;;;5052142;28;20040;-74
2021/01/06 03:04:39;;;;;;;3.00;2.17;;;;;;;;;;5051260;28;20043;-74
2021/01/06 03:07:06;;;;;;;2.55;2.35;;;;;;;;;;5052209;28;20130;-73
2021/01/06 03:09:32;;;;;;;3.15;2.15;;;;;;;;;;5051952;28;20060;-73
2021/01/06 03:11:59;;;;;;;3.67;2.95;;;;;;;;;;5051435;28;20094;-73
2021/01/06 03:14:28;;;;;;;3.03;1.95;;;;;;;;;;5051422;28;20162;-74
2021/01/06 03:16:55;;;;;;;2.22;1.80;;;;;;;;;;5051174;28;20365;-73
2021/01/06 03:19:22;;;;;;;4.72;2.95;;;;;;;;;;5051180;28;20036;-73
2021/01/06 03:21:49;;;;;;;2.28;2.15;;;;;;;;;;5050814;28;20453;-73
2021/01/06 03:24:17;;;;;;;2.17;2.08;;;;;;;;;;5051420;28;20032;-74
2021/01/06 03:26:44;;;;;;;2.63;1.92;;;;;;;;;;5050678;28;20025;-73
2021/01/06 03:29:10;;;;;;;2.50;2.30;;;;;;;;;;5051785;28;20086;-73
2021/01/06 03:31:43;;;;;;;5.03;2.50;;;;;;;;;;5050761;28;20438;-73
2021/01/06 03:34:20;;;;;;;2.15;1.92;;;;;;;;;;5051282;28;20521;-73
2021/01/06 03:36:50;;;;;;;2.80;2.55;;;;;;;;;;5062712;28;20048;-73
2021/01/06 03:39:23;;;;;;;1.58;1.48;;;;;;;;;;5071444;28;20040;-72
2021/01/06 03:41:49;;;;;;;1.85;1.50;;;;;;;;;;5070103;28;20044;-72
2021/01/06 03:44:16;;;;;;;2.22;1.67;;;;;;;;;;5071061;28;20024;-73
2021/01/06 03:47:01;;;;;;;3.05;2.83;;;;;;;;;;5070444;28;20445;-72
2021/01/06 03:49:36;;;;;;;2.60;2.20;;;;;;;;;;5071243;28;20035;-72
2021/01/06 03:52:11;;;;;;;2.42;2.22;;;;;;;;;;5070666;28;20031;-73
2021/01/06 03:54:49;;;;;;;2.35;1.85;;;;;;;;;;5070214;28;20028;-73
2021/01/06 03:57:16;;;;;;;5.97;3.60;;;;;;;;;;5070889;28;20028;-72
2021/01/06 03:59:44;;;;;;;2.13;1.90;;;;;;;;;;5070517;28;20040;-72
2021/01/06 04:02:10;;;;;;;1.70;1.52;;;;;;;;;;5070526;28;20032;-72
2021/01/06 04:04:41;;;;;;;1.98;1.77;;;;;;;;;;5069913;28;20431;-73
2021/01/06 04:07:27;;;;;;;2.08;1.88;;;;;;;;;;5070669;28;20063;-73
2021/01/06 04:10:03;;;;;;;3.83;2.33;;;;;;;;;;5069913;28;20036;-73
2021/01/06 04:12:29;;;;;;;1.77;1.67;;;;;;;;;;5070593;28;20021;-72
2021/01/06 04:14:55;;;;;;;2.00;1.80;;;;;;;;;;5069552;28;20037;-73
2021/01/06 04:17:37;;;;;;;2.45;2.17;;;;;;;;;;5070049;28;20037;-72
2021/01/06 04:20:15;;;;;;;2.50;2.30;;;;;;;;;;5070479;28;20082;-73
2021/01/06 04:22:46;;;;;;;1.73;1.52;;;;;;;;;;5069593;28;20043;-73
2021/01/06 04:25:14;;;;;;;1.50;1.40;;;;;;;;;;5070175;28;20028;-73
2021/01/06 04:27:42;;;;;;;2.00;1.65;;;;;;;;;;5069615;28;20061;-72
2021/01/06 04:30:20;;;;;;;2.00;1.83;;;;;;;;;;5070427;28;20033;-72
2021/01/06 04:32:47;;;;;;;1.73;1.60;;;;;;;;;;5069916;28;20100;-73
2021/01/06 04:35:14;;;;;;;2.83;2.22;;;;;;;;;;5068704;28;20028;-73
2021/01/06 04:37:40;;;;;;;2.53;2.13;;;;;;;;;;5069434;28;20531;-72
2021/01/06 04:40:06;;;;;;;2.53;2.25;;;;;;;;;;5070296;28;20082;-73
2021/01/06 04:42:33;;;;;;;2.75;1.85;;;;;;;;;;5070319;28;20039;-73
2021/01/06 04:45:08;;;;;;;2.10;1.90;;;;;;;;;;5068839;28;20028;-73
2021/01/06 04:47:41;;;;;;;1.58;1.48;;;;;;;;;;5069824;28;20035;-73
2021/01/06 04:50:07;;;;;;;2.42;2.08;;;;;;;;;;5070649;28;20425;-73
2021/01/06 04:52:52;;;;;;;1.92;1.73;;;;;;;;;;5069968;28;20451;-72
2021/01/06 04:55:36;;;;;;;1.98;1.70;;;;;;;;;;5069906;28;20095;-73
2021/01/06 04:58:21;;;;;;;2.90;2.08;;;;;;;;;;5069860;28;20436;-73
2021/01/06 05:01:09;;;;;;;3.08;1.73;;;;;;;;;;5069734;28;20406;-73
2021/01/06 05:03:40;;;;;;;1.48;1.38;;;;;;;;;;5068881;28;20039;-72
2021/01/06 05:06:18;;;;;;;1.77;1.48;;;;;;;;;;5069347;28;20448;-73
2021/01/06 05:08:55;;;;;;;1.55;1.45;;;;;;;;;;5069544;28;20363;-72
2021/01/06 05:11:33;;;;;;;1.65;1.55;;;;;;;;;;5070109;28;20032;-72
2021/01/06 05:14:03;;;;;;;2.35;1.92;;;;;;;;;;5069663;28;20028;-72
2021/01/06 05:16:32;;;;;;;2.03;1.48;;;;;;;;;;5069767;28;20391;-73
2021/01/06 05:18:58;;;;;;;2.15;1.80;;;;;;;;;;5069442;28;20031;-72
2021/01/06 05:21:27;;;;;;;2.55;2.35;;;;;;;;;;5069748;28;20444;-72
2021/01/06 05:23:57;;;;;;;1.35;1.25;;;;;;;;;;5068894;28;20147;-73
2021/01/06 05:26:23;;;;;;;2.30;1.65;;;;;;;;;;5069180;28;20024;-72
2021/01/06 05:28:50;;;;;;;1.60;1.50;;;;;;;;;;5068930;28;20546;-73
2021/01/06 05:31:17;;;;;;;2.33;2.13;;;;;;;;;;5070004;28;20431;-73
2021/01/06 05:33:54;;;;;;;1.83;1.73;;;;;;;;;;5068827;28;20033;-72
2021/01/06 05:36:29;;;;;;;1.65;1.55;;;;;;;;;;5067986;28;20509;-73
2021/01/06 05:38:55;;;;;;;1.40;1.30;;;;;;;;;;5069011;28;20052;-72
2021/01/06 05:41:21;;;;;;;2.60;2.20;;;;;;;;;;5069556;28;20048;-72
2021/01/06 05:43:51;;;;;;;2.17;1.40;;;;;;;;;;5069023;28;20463;-73
2021/01/06 05:46:21;;;;;;;2.58;1.92;;;;;;;;;;5069434;28;20028;-72
2021/01/06 05:48:51;;;;;;;2.58;2.00;;;;;;;;;;5068336;28;20440;-73
2021/01/06 05:51:17;;;;;;;1.70;1.60;;;;;;;;;;5069471;28;20033;-72
2021/01/06 05:54:03;;;;;;;1.95;1.40;;;;;;;;;;5068574;28;20028;-73
2021/01/06 05:56:35;;;;;;;1.60;1.42;;;;;;;;;;5073144;28;20348;-72
2021/01/06 05:59:20;;;;;;;1.55;1.45;;;;;;;;;;5072687;28;20500;-73
2021/01/06 06:02:06;;;;;;;1.98;1.77;;;;;;;;;;5072629;28;20068;-73
2021/01/06 06:04:38;;;;;;;2.38;1.75;;;;;;;;;;5072682;28;20025;-73
2021/01/06 06:07:15;;;;;;;2.25;1.65;;;;;;;;;;5072733;28;20031;-72
2021/01/06 06:10:00;;;;;;;1.40;1.30;;;;;;;;;;5072100;28;20029;-72
2021/01/06 06:12:50;;;;;;;1.40;1.30;;;;;;;;;;5073026;28;20020;-73
2021/01/06 06:15:24;;;;;;;1.33;1.23;;;;;;;;;;5072404;28;20024;-73
2021/01/06 06:17:56;;;;;;;1.48;1.38;;;;;;;;;;5072233;28;20024;-73
2021/01/06 06:20:41;;;;;;;2.15;1.67;;;;;;;;;;5072481;28;20132;-72
2021/01/06 06:23:20;;;;;;;1.58;1.48;;;;;;;;;;5072702;28;20048;-73
2021/01/06 06:25:54;;;;;;;1.38;1.20;;;;;;;;;;5071837;28;20067;-72
2021/01/06 06:28:20;;;;;;;;;;;;;;;;;;5073223;28;20108;-72
2021/01/06 06:30:54;;;;;;;1.67;1.50;;;;;;;;;;5071946;28;20378;-72
2021/01/06 06:33:28;;;;;;;2.22;1.92;;;;;;;;;;5072439;28;20025;-72
2021/01/06 06:35:55;;;;;;;1.73;1.50;;;;;;;;;;5070024;28;20055;-73
2021/01/06 06:38:33;;;;;;;1.38;1.27;;;;;;;;;;5072470;28;20033;-73
2021/01/06 06:41:02;;;;;;;1.10;1.10;;;;;;;;;;5071812;28;20071;-73
2021/01/06 06:43:28;;;;;;;1.48;1.38;;;;;;;;;;5072237;28;20063;-72
2021/01/06 06:46:11;;;;;;;1.30;1.02;;;;;;;;;;5071511;28;20043;-73
2021/01/06 06:48:54;;;;;;;1.80;1.70;;;;;;;;;;5072100;28;20073;-72
2021/01/06 06:51:22;;;;;;;2.13;1.93;;;;;;;;;;5074413;28;20108;-73
2021/01/06 06:53:57;;;;;;;1.58;1.40;;;;;;;;;;5070507;28;20271;-73
2021/01/06 06:56:27;;;;;;;1.42;1.15;;;;;;;;;;5071510;28;20467;-72
2021/01/06 06:58:58;;;;;;;4.07;2.92;;;;;;;;;;5069641;28;20370;-72
2021/01/06 07:01:27;;;;;;;2.78;2.53;;;;;;;;;;5065551;28;20024;-72
2021/01/06 07:03:55;;;;;;;2.58;1.17;;;;;;;;;;5068296;28;20036;-72
2021/01/06 07:06:21;;;;;;;2.95;2.25;;;;;;;;;;5050855;28;20071;-72
2021/01/06 07:08:52;;;;;;;3.17;1.67;;;;;;;;;;5060136;28;20057;-72
2021/01/06 07:11:27;;;;;;;2.63;2.40;;;;;;;;;;5054270;28;20053;-72
2021/01/06 07:13:58;;;;;;;2.25;1.92;;;;;;;;;;5049852;28;20512;-72
2021/01/06 07:16:30;;;;;;;2.55;1.95;;;;;;;;;;5067327;28;20367;-72
2021/01/06 07:19:04;;;;;;;4.00;1.75;;;;;;;;;;5070225;28;20399;-72
2021/01/06 07:21:34;;;;;;;2.45;1.42;;;;;;;;;;5070903;28;20036;-73
2021/01/06 07:24:01;;;;;;;1.80;1.70;;;;;;;;;;5062524;28;20039;-72
2021/01/06 07:26:29;;;;;;;3.13;2.22;;;;;;;;;;5050399;28;20033;-72
2021/01/06 07:29:02;;;;;;;1.48;1.38;;;;;;;;;;5059533;28;20578;-72
2021/01/06 07:31:30;;;;;;;1.80;1.70;;;;;;;;;;5057480;28;20072;-71
2021/01/06 07:33:59;;;;;;;3.70;3.33;;;;;;;;;;5049292;28;20049;-71
2021/01/06 07:36:27;;;;;;;2.53;2.33;;;;;;;;;;5068581;28;20036;-73
2021/01/06 07:38:55;;;;;;;2.50;2.30;;;;;;;;;;5087689;28;20089;-74
2021/01/06 07:41:22;;;;;;;2.92;2.63;;;;;;;;;;5075323;28;20040;-73
2021/01/06 07:44:06;;;;;;;3.95;2.53;;;;;;;;;;5063554;28;20041;-72
2021/01/06 07:46:35;;;;;;;1.98;1.33;;;;;;;;;;5053013;28;20479;-72
2021/01/06 07:49:26;;;;;;;2.97;2.67;;;;;;;;;;5060968;28;20058;-72
2021/01/06 07:52:11;;;;;;;2.15;1.90;;;;;;;;;;5063710;28;20033;-73
2021/01/06 07:54:42;;;;;;;3.78;1.98;;;;;;;;;;5049322;28;20036;-73
2021/01/06 07:57:11;;;;;;;1.90;1.80;;;;;;;;;;5053931;28;20033;-72
2021/01/06 07:59:43;;;;;;;1.65;1.55;;;;;;;;;;5051089;28;20047;-72
2021/01/06 08:02:14;;;;;;;2.08;1.55;;;;;;;;;;5047888;28;20131;-73
2021/01/06 08:05:03;;;;;;;1.52;1.42;;;;;;;;;;5046143;28;20037;-73
2021/01/06 08:07:29;;;;;;;4.10;2.15;;;;;;;;;;5040703;28;20124;-74
2021/01/06 08:09:56;;;;;;;2.42;1.83;;;;;;;;;;5051969;28;20140;-73
2021/01/06 08:12:22;;;;;;;11.43;1.98;;;;;;;;;;5054109;28;20823;-73
2021/01/06 08:14:49;;;;;;;4.03;1.63;;;;;;;;;;5044919;28;20033;-74
2021/01/06 08:17:21;;;;;;;6.32;2.22;;;;;;;;;;5047457;28;20068;-71
2021/01/06 08:20:09;;;;;;;6.95;2.92;;;;;;;;;;5042694;28;20441;-72
2021/01/06 08:22:40;;;;;;;4.38;2.80;;;;;;;;;;5043628;28;20037;-71
2021/01/06 08:25:10;;;;;;;5.70;2.63;;;;;;;;;;5051188;28;20399;-71
2021/01/06 08:27:36;;;;;;;6.30;2.47;;;;;;;;;;5048372;28;20102;-72
2021/01/06 08:30:14;;;;;;;3.72;2.08;;;;;;;;;;5054226;28;20031;-72
2021/01/06 08:32:40;;;;;;;5.63;2.17;;;;;;;;;;5049234;28;20043;-72
2021/01/06 08:35:09;;;;;;;2.20;2.00;;;;;;;;;;5052449;28;20035;-72
2021/01/06 08:37:37;;;;;;;5.10;2.22;;;;;;;;;;5040289;28;20473;-71
2021/01/06 08:40:23;;;;;;;2.92;1.80;;;;;;;;;;5048442;28;20032;-72
2021/01/06 08:42:50;;;;;;;2.95;2.67;;;;;;;;;;5044959;28;20046;-72
2021/01/06 08:45:21;;;;;;;3.42;1.95;;;;;;;;;;5047987;28;20608;-71
2021/01/06 08:47:47;;;;;;;4.93;2.90;;;;;;;;;;5044705;28;20115;-72
2021/01/06 08:50:16;;;;;;;2.35;1.30;;;;;;;;;;5045454;28;20037;-72
2021/01/06 08:52:55;;;;;;;3.33;2.20;;;;;;;;;;5048205;28;20530;-72
2021/01/06 08:55:22;;;;;;;3.85;2.00;;;;;;;;;;5048011;28;20756;-72
2021/01/06 08:57:56;;;;;;;5.55;2.30;;;;;;;;;;5045709;28;20033;-72
2021/01/06 09:00:28;;;;;;;4.43;2.28;;;;;;;;;;5044890;28;20029;-72
2021/01/06 09:02:59;;;;;;;3.90;1.63;;;;;;;;;;5040266;28;20052;-73
2021/01/06 09:05:40;;;;;;;2.63;1.63;;;;;;;;;;5042516;28;20029;-72
2021/01/06 09:08:18;;;;;;;2.45;2.03;;;;;;;;;;5044982;28;20033;-72
2021/01/06 09:10:54;;;;;;;2.47;1.70;;;;;;;;;;5047062;28;20030;-72
2021/01/06 09:13:21;;;;;;;5.10;1.77;;;;;;;;;;5046596;28;20081;-72
2021/01/06 09:15:50;;;;;;;3.60;2.75;;;;;;;;;;5040831;28;20124;-72
2021/01/06 09:18:16;;;;;;;9.40;1.98;;;;;;;;;;5045417;28;20030;-72
2021/01/06 09:21:06;;;;;;;6.97;2.05;;;;;;;;;;5040719;28;20388;-72
2021/01/06 09:23:33;;;;;;;5.65;2.22;;;;;;;;;;5033970;28;20072;-72
2021/01/06 09:26:01;;;;;;;3.55;2.60;;;;;;;;;;5046730;28;20033;-72
2021/01/06 09:28:27;;;;;;;5.28;2.67;;;;;;;;;;5041820;28;20059;-72
2021/01/06 09:30:54;;;;;;;6.13;2.72;;;;;;;;;;5045307;28;20033;-72
2021/01/06 09:33:26;;;;;;;5.10;2.58;;;;;;;;;;5051092;28;20034;-72
2021/01/06 09:35:52;;;;;;;5.25;2.83;;;;;;;;;;5038835;28;20411;-72
2021/01/06 09:38:27;;;;;;;4.68;2.60;;;;;;;;;;5030056;28;20033;-72
2021/01/06 09:40:55;;;;;;;6.03;2.10;;;;;;;;;;5038573;28;20044;-73
2021/01/06 09:43:40;;;;;;;4.00;2.80;;;;;;;;;;5034392;28;20481;-73
2021/01/06 09:46:28;;;;;;;4.72;2.17;;;;;;;;;;5032576;28;20104;-69
2021/01/06 09:48:57;;;;;;;6.13;2.28;;;;;;;;;;5038042;28;20119;-71
2021/01/06 09:51:23;;;;;;;3.72;2.17;;;;;;;;;;5028609;28;20032;-72
2021/01/06 09:53:53;;;;;;;3.17;2.67;;;;;;;;;;5032622;28;20188;-72
2021/01/06 09:56:20;;;;;;;2.90;2.35;;;;;;;;;;5032669;28;20052;-72
2021/01/06 09:58:47;;;;;;;3.13;2.67;;;;;;;;;;5032696;28;20057;-72
2021/01/06 10:01:32;;;;;;;3.15;2.60;;;;;;;;;;5036704;28;20092;-72
2021/01/06 10:04:02;;;;;;;2.20;1.98;;;;;;;;;;5037262;28;20037;-73
2021/01/06 10:06:47;;;;;;;4.13;2.05;;;;;;;;;;5031754;28;20030;-73
2021/01/06 10:09:42;;;;;;;11.82;2.85;;;;;;;;;;5037807;28;20063;-73
2021/01/06 10:12:16;;;;;;;3.40;1.70;;;;;;;;;;5008511;28;20132;-72
2021/01/06 10:14:53;;;;;;;3.90;1.80;;;;;;;;;;5031637;28;20163;-73
2021/01/06 10:17:24;;;;;;;6.80;2.08;;;;;;;;;;5032020;28;20032;-78
2021/01/06 10:19:55;;;;;;;2.83;2.28;;;;;;;;;;5032156;28;20037;-75
2021/01/06 10:22:41;;;;;;;2.35;1.75;;;;;;;;;;5028537;28;20475;-73
2021/01/06 10:25:10;;;;;;;5.47;2.22;;;;;;;;;;5025888;28;20037;-69
2021/01/06 10:27:39;;;;;;;3.92;1.98;;;;;;;;;;5027644;28;20057;-73
2021/01/06 10:30:13;;;;;;;2.17;1.70;;;;;;;;;;5036390;28;20029;-72
2021/01/06 10:32:44;;;;;;;5.25;2.35;;;;;;;;;;5034182;28;20032;-72
2021/01/06 10:35:22;;;;;;;2.70;1.98;;;;;;;;;;5033444;28;20099;-73
2021/01/06 10:37:49;;;;;;;3.55;1.65;;;;;;;;;;5027193;28;20132;-73
2021/01/06 10:40:24;;;;;;;2.67;2.47;;;;;;;;;;5037454;28;20029;-72
2021/01/06 10:42:51;;;;;;;3.30;2.42;;;;;;;;;;5037162;28;20095;-72
2021/01/06 10:45:29;;;;;;;2.05;1.83;;;;;;;;;;5032117;28;20116;-73
2021/01/06 10:47:56;;;;;;;1.90;1.65;;;;;;;;;;5031320;28;20084;-72
2021/01/06 10:50:26;;;;;;;2.78;1.75;;;;;;;;;;5033199;28;20044;-73
2021/01/06 10:53:11;;;;;;;2.45;2.15;;;;;;;;;;5035002;28;20909;-73
2021/01/06 10:55:53;;;;;;;4.35;2.45;;;;;;;;;;5027408;28;20541;-72
2021/01/06 10:58:25;;;;;;;2.45;2.25;;;;;;;;;;5034874;28;20891;-73
2021/01/06 11:00:54;;;;;;;3.83;1.95;;;;;;;;;;5027255;28;20410;-73
2021/01/06 11:03:39;;;;;;;3.78;2.05;;;;;;;;;;5036314;28;20043;-73
2021/01/06 11:06:14;;;;;;;2.25;1.73;;;;;;;;;;5030809;28;20033;-72
2021/01/06 11:08:59;;;;;;;3.38;1.73;;;;;;;;;;5031369;28;20033;-72
2021/01/06 11:11:34;;;;;;;4.25;2.92;;;;;;;;;;5034941;28;20041;-73
2021/01/06 11:14:06;;;;;;;3.33;2.03;;;;;;;;;;5034809;28;20118;-72
2021/01/06 11:16:44;;;;;;;3.58;2.08;;;;;;;;;;5030336;28;20246;-72
2021/01/06 11:19:28;;;;;;;4.82;3.03;;;;;;;;;;5030567;28;20032;-72
2021/01/06 11:22:23;;;;;;;4.15;2.42;;;;;;;;;;5036038;28;20714;-73
2021/01/06 11:24:57;;;;;;;3.65;3.13;;;;;;;;;;5022076;28;20073;-73
2021/01/06 11:27:41;;;;;;;2.88;1.98;;;;;;;;;;5030348;28;20388;-72
2021/01/06 11:30:07;;;;;;;;;;;;;;;;;;5033063;28;20033;-72
2021/01/06 11:32:35;;;;;;;2.58;1.65;;;;;;;;;;5033835;28;19927;-73
2021/01/06 11:35:29;;;;;;;4.40;3.10;;;;;;;;;;5032527;28;20029;-73
2021/01/06 11:37:56;;;;;;;3.17;2.45;;;;;;;;;;5024454;28;20903;-72
2021/01/06 11:40:28;;;;;;;4.30;1.98;;;;;;;;;;5032599;28;20501;-72
2021/01/06 11:43:03;;;;;;;4.03;1.85;;;;;;;;;;5028812;28;20626;-72
2021/01/06 11:45:45;;;;;;;4.47;2.45;;;;;;;;;;5036840;28;20032;-72
2021/01/06 11:48:35;;;;;;;2.30;2.08;;;;;;;;;;5032966;28;20713;-72
2021/01/06 11:51:13;;;;;;;3.50;2.42;;;;;;;;;;5032352;28;20029;-72
2021/01/06 11:53:41;;;;;;;2.42;1.95;;;;;;;;;;5029857;28;20345;-72
2021/01/06 11:56:13;;;;;;;3.13;2.60;;;;;;;;;;5030712;28;20117;-72
2021/01/06 11:58:45;;;;;;;5.50;2.10;;;;;;;;;;5031287;28;20498;-72
2021/01/06 12:01:18;;;;;;;4.80;3.42;;;;;;;;;;5034520;28;20033;-72
2021/01/06 12:04:04;;;;;;;1.85;1.55;;;;;;;;;;5027760;28;20040;-72
2021/01/06 12:06:53;;;;;;;2.70;1.83;;;;;;;;;;5000190;28;20436;-72
2021/01/06 12:09:26;;;;;;;2.13;2.03;;;;;;;;;;5038275;28;20064;-72
2021/01/06 12:12:12;;;;;;;2.30;1.90;;;;;;;;;;5035559;28;20492;-72
2021/01/06 12:14:52;;;;;;;1.85;1.75;;;;;;;;;;4998967;28;20120;-71
2021/01/06 12:17:24;;;;;;;2.60;2.40;;;;;;;;;;5034046;28;20034;-72
2021/01/06 12:19:59;;;;;;;1.92;1.83;;;;;;;;;;5027383;28;20052;-72
2021/01/06 12:22:26;;;;;;;2.72;2.40;;;;;;;;;;5037584;28;20073;-71
2021/01/06 12:24:55;;;;;;;2.38;2.00;;;;;;;;;;5036649;28;20068;-72
2021/01/06 12:27:34;;;;;;;2.47;1.95;;;;;;;;;;5025269;28;20595;-71
2021/01/06 12:30:12;;;;;;;2.33;1.98;;;;;;;;;;5035251;28;20040;-72
2021/01/06 12:32:42;;;;;;;2.20;1.83;;;;;;;;;;5027673;28;20043;-72
2021/01/06 12:35:20;;;;;;;2.30;1.73;;;;;;;;;;5033528;28;20116;-72
2021/01/06 12:38:05;;;;;;;2.03;1.85;;;;;;;;;;5026728;28;20579;-72
2021/01/06 12:40:32;;;;;;;4.55;2.97;;;;;;;;;;5024467;28;20044;-72
2021/01/06 12:43:00;;;;;;;2.75;2.35;;;;;;;;;;5026013;28;20033;-72
2021/01/06 12:45:31;;;;;;;2.25;2.05;;;;;;;;;;5023974;28;20030;-73
2021/01/06 12:48:21;;;;;;;3.55;1.98;;;;;;;;;;5024943;28;20368;-73
2021/01/06 12:51:09;;;;;;;2.08;1.77;;;;;;;;;;5012378;28;20529;-73
2021/01/06 12:53:41;;;;;;;3.67;1.92;;;;;;;;;;5032622;28;20036;-72
2021/01/06 12:56:13;;;;;;;2.00;1.50;;;;;;;;;;5022196;28;20037;-73
2021/01/06 12:58:47;;;;;;;3.40;2.78;;;;;;;;;;5025917;28;20073;-72
2021/01/06 13:01:29;;;;;;;3.63;2.08;;;;;;;;;;5031451;28;20060;-72
2021/01/06 13:03:59;;;;;;;4.22;2.20;;;;;;;;;;5030451;28;20041;-73
2021/01/06 13:06:31;;;;;;;2.47;2.10;;;;;;;;;;5024508;28;20030;-72
2021/01/06 13:09:06;;;;;;;2.65;1.50;;;;;;;;;;5024603;28;20053;-72
2021/01/06 13:11:38;;;;;;;3.05;2.70;;;;;;;;;;5028354;28;20033;-72
2021/01/06 13:14:20;;;;;;;4.97;1.90;;;;;;;;;;5023834;28;20026;-73
2021/01/06 13:16:51;;;;;;;5.82;2.42;;;;;;;;;;5020463;28;20243;-72
2021/01/06 13:19:26;;;;;;;3.22;2.05;;;;;;;;;;5035852;28;20518;-73
2021/01/06 13:22:19;;;;;;;2.38;2.15;;;;;;;;;;5025138;28;20425;-73
2021/01/06 13:24:46;;;;;;;3.13;2.30;;;;;;;;;;5004664;28;20045;-72
2021/01/06 13:27:32;;;;;;;1.88;1.77;;;;;;;;;;5032579;28;20474;-72
2021/01/06 13:30:00;;;;;;;2.38;1.80;;;;;;;;;;5036104;28;20582;-73
2021/01/06 13:32:38;;;;;;;2.22;1.90;;;;;;;;;;5031454;28;20053;-73
2021/01/06 13:35:13;;;;;;;2.05;1.90;;;;;;;;;;5026599;28;20034;-73
2021/01/06 13:37:39;;;;;;;2.63;1.85;;;;;;;;;;5046331;28;20045;-73
2021/01/06 13:40:14;;;;;;;2.10;1.27;;;;;;;;;;5044853;28;20037;-72
2021/01/06 13:42:49;;;;;;;1.92;1.40;;;;;;;;;;5043941;28;20099;-73
2021/01/06 13:45:31;;;;;;;3.47;1.80;;;;;;;;;;5055622;28;20113;-73
2021/01/06 13:48:05;;;;;;;2.17;1.40;;;;;;;;;;5046626;28;20037;-73
2021/01/06 13:50:34;;;;;;;1.60;1.50;;;;;;;;;;5053481;28;20120;-72
2021/01/06 13:53:10;;;;;;;2.30;2.08;;;;;;;;;;5044521;28;20041;-72
2021/01/06 13:55:39;;;;;;;3.45;1.48;;;;;;;;;;5051952;28;20036;-73
2021/01/06 13:58:11;;;;;;;2.00;1.70;;;;;;;;;;5051240;28;20041;-69
2021/01/06 14:00:37;;;;;;;1.63;1.30;;;;;;;;;;5046264;28;20036;-71
2021/01/06 14:03:22;;;;;;;2.60;1.73;;;;;;;;;;5055043;28;20118;-74
2021/01/06 14:05:51;;;;;;;4.57;2.20;;;;;;;;;;5050139;28;20017;-72
2021/01/06 14:08:37;;;;;;;3.53;1.65;;;;;;;;;;5048670;28;20653;-72
2021/01/06 14:11:09;;;;;;;1.65;1.10;;;;;;;;;;5019241;28;20029;-72
2021/01/06 14:13:54;;;;;;;2.67;1.92;;;;;;;;;;5047145;28;20052;-72
2021/01/06 14:16:29;;;;;;;2.45;1.77;;;;;;;;;;5054558;28;20112;-73
2021/01/06 14:19:01;;;;;;;2.80;2.53;;;;;;;;;;5048395;28;21376;-72
2021/01/06 14:21:41;;;;;;;3.17;1.38;;;;;;;;;;5048925;28;20037;-71
2021/01/06 14:24:14;;;;;;;1.60;1.50;;;;;;;;;;5047785;28;20043;-72
2021/01/06 14:26:48;;;;;;;2.30;2.00;;;;;;;;;;5046875;28;20039;-71
2021/01/06 14:29:14;;;;;;;2.13;1.92;;;;;;;;;;5052023;28;20433;-72
2021/01/06 14:31:43;;;;;;;2.88;2.30;;;;;;;;;;5052843;28;20459;-72
2021/01/06 14:34:18;;;;;;;3.15;2.80;;;;;;;;;;5053989;28;20029;-72
2021/01/06 14:36:46;;;;;;;4.10;2.78;;;;;;;;;;5052539;28;20157;-72
2021/01/06 14:39:42;;;;;;;3.17;2.75;;;;;;;;;;5058717;28;20496;-72
2021/01/06 14:42:14;;;;;;;4.20;3.40;;;;;;;;;;5050172;28;20048;-72
2021/01/06 14:45:01;;;;;;;4.75;3.15;;;;;;;;;;5049119;28;20036;-72
2021/01/06 14:47:36;;;;;;;4.18;2.53;;;;;;;;;;5015520;28;20068;-72
2021/01/06 14:50:14;;;;;;;2.88;2.35;;;;;;;;;;5047569;28;20043;-72
2021/01/06 14:52:59;;;;;;;4.75;2.67;;;;;;;;;;5044312;28;20030;-72
2021/01/06 14:55:30;;;;;;;3.63;3.28;;;;;;;;;;5054645;28;20104;-72
2021/01/06 14:58:15;;;;;;;3.25;2.63;;;;;;;;;;5049775;28;20029;-72
2021/01/06 15:00:54;;;;;;;3.47;2.53;;;;;;;;;;5050929;28;20165;-72
2021/01/06 15:03:38;;;;;;;3.90;1.85;;;;;;;;;;5053285;28;20040;-72
2021/01/06 15:06:04;;;;;;;2.42;1.85;;;;;;;;;;5054353;28;20033;-77
2021/01/06 15:08:40;;;;;;;2.55;2.15;;;;;;;;;;5052606;28;20040;-72
2021/01/06 15:11:26;;;;;;;6.60;1.83;;;;;;;;;;5052864;28;20028;-71
2021/01/06 15:14:01;;;;;;;1.80;1.60;;;;;;;;;;5050363;28;20838;-72
2021/01/06 15:16:27;;;;;;;2.97;2.25;;;;;;;;;;5054707;28;20029;-71